Time;durP1;ratioP1;P1;durP2;ratioP2;P2;SDS_P1;SDS_P2;PMS_P1;PMS_P2;Temp;Humidity;BMP_temperature;BMP_pressure;BME280_temperature;BME280_humidity;BME280_pressure;Samples;Min_cycle;Max_cycle;Signal;HPM_P1;HPM_P2
2022/02/26 00:00:27;;;;;;;;;;;;;;;0.17;93.49;102884.19;2055699;28;45982;-62
2022/02/26 00:01:29;;;;;;;;;;;;;;;0.15;93.74;102884.09;2055395;28;43931;-62
2022/02/26 00:02:31;;;;;;;;;;;;;;;0.11;93.62;102886.50;2056613;28;19937;-63
2022/02/26 00:03:33;;;;;;;;;;;;;;;0.11;93.50;102899.69;2055983;28;42480;-62
2022/02/26 00:04:35;;;;;;;;;;;;;;;0.12;93.45;102896.19;2056637;28;19935;-62
2022/02/26 00:05:40;;;;;;;;;;;;;;;0.13;94.38;102900.66;2056229;28;20780;-62
2022/02/26 00:06:41;;;;;;;;;;;;;;;0.24;94.28;102903.84;2056777;28;19926;-64
2022/02/26 00:07:43;;;;;;;;;;;;;;;0.26;94.78;102899.56;2062532;28;41141;-62
2022/02/26 00:08:44;;;;;;;;;;;;;;;0.27;94.28;102901.34;2063074;28;45602;-62
2022/02/26 00:09:47;;;;;;;;;;;;;;;0.38;94.62;102903.72;2056308;28;20045;-63
2022/02/26 00:10:49;;;;;;;;;;;;;;;0.34;94.60;102906.09;2055300;28;45429;-62
2022/02/26 00:11:50;;;;;;;;;;;;;;;0.33;93.75;102907.84;2055426;28;44618;-62
2022/02/26 00:12:55;;;;;;;;;;;;;;;0.31;93.91;102904.22;2055266;28;45653;-62
2022/02/26 00:13:57;;;;;;;;;;;;;;;0.32;94.58;102906.03;2062602;28;43398;-62
2022/02/26 00:14:58;;;;;;;;;;;;;;;0.28;94.02;102906.69;2062667;28;45285;-62
2022/02/26 00:16:00;;;;;;;;;;;;;;;0.35;94.61;102914.09;2055245;28;45273;-62
2022/02/26 00:17:02;;;;;;;;;;;;;;;0.40;94.79;102918.72;2055679;28;44038;-62
2022/02/26 00:18:03;;;;;;;;;;;;;;;0.32;93.98;102918.28;2055513;28;45277;-62
2022/02/26 00:19:05;;;;;;;;;;;;;;;0.32;94.44;102911.31;2055517;28;38995;-62
2022/02/26 00:20:10;;;;;;;;;;;;;;;0.28;94.12;102917.22;2055333;28;43873;-62
2022/02/26 00:21:14;;;;;;;;;;;;;;;0.29;94.16;102923.44;2055357;28;46810;-62
2022/02/26 00:22:15;;;;;;;;;;;;;;;0.32;94.66;102918.28;2055313;28;42636;-62
2022/02/26 00:23:17;;;;;;;;;;;;;;;0.29;94.41;102923.44;2055430;28;44154;-62
2022/02/26 00:24:18;;;;;;;;;;;;;;;0.34;94.36;102925.47;2054758;28;36323;-62
2022/02/26 00:25:20;;;;;;;;;;;;;;;0.31;94.61;102925.31;2055754;28;44399;-62
2022/02/26 00:26:22;;;;;;;;;;;;;;;0.29;94.30;102928.69;2055492;28;45699;-62
2022/02/26 00:27:24;;;;;;;;;;;;;;;0.33;94.45;102925.38;2055430;28;46270;-62
2022/02/26 00:28:26;;;;;;;;;;;;;;;0.38;94.41;102931.78;2055609;28;43202;-63
2022/02/26 00:29:28;;;;;;;;;;;;;;;0.39;94.76;102933.59;2055251;28;46170;-63
2022/02/26 00:30:30;;;;;;;;;;;;;;;0.34;94.31;102941.28;2056303;28;19930;-63
2022/02/26 00:31:32;;;;;;;;;;;;;;;0.40;94.60;102938.03;2055229;28;44383;-62
2022/02/26 00:32:34;;;;;;;;;;;;;;;0.34;94.54;102942.97;2055455;28;44767;-63
2022/02/26 00:33:35;;;;;;;;;;;;;;;0.34;94.20;102943.91;2056045;28;20704;-62
2022/02/26 00:34:37;;;;;;;;;;;;;;;0.28;94.37;102940.94;2056563;28;19930;-62
2022/02/26 00:35:40;;;;;;;;;;;;;;;0.33;94.85;102950.00;2055215;28;44575;-62
2022/02/26 00:36:42;;;;;;;;;;;;;;;0.30;94.48;102955.09;2055164;28;45416;-62
2022/02/26 00:37:43;;;;;;;;;;;;;;;0.34;95.43;102959.72;2055463;28;44054;-63
2022/02/26 00:38:45;;;;;;;;;;;;;;;0.37;94.45;102951.94;2055660;28;45450;-61
2022/02/26 00:39:46;;;;;;;;;;;;;;;0.34;94.32;102959.72;2054775;28;45051;-62
2022/02/26 00:40:48;;;;;;;;;;;;;;;0.39;94.40;102959.94;2063069;28;44033;-62
2022/02/26 00:41:50;;;;;;;;;;;;;;;0.33;94.60;102955.25;2062345;28;45420;-63
2022/02/26 00:42:52;;;;;;;;;;;;;;;0.34;94.48;102961.41;2055493;28;45726;-63
2022/02/26 00:43:53;;;;;;;;;;;;;;;0.34;94.67;102962.34;2055264;28;44261;-63
2022/02/26 00:44:55;;;;;;;;;;;;;;;0.32;94.21;102958.75;2055569;28;46417;-63
2022/02/26 00:45:57;;;;;;;;;;;;;;;0.35;95.10;102966.78;2055450;28;42748;-63
2022/02/26 00:46:58;;;;;;;;;;;;;;;0.38;94.83;102966.06;2055817;28;45915;-63
2022/02/26 00:48:02;;;;;;;;;;;;;;;0.36;94.74;102965.97;2055331;28;19965;-63
2022/02/26 00:50:24;;;;;;;;;;;;;;;0.32;94.42;102973.63;2055301;28;44124;-62
2022/02/26 00:51:25;;;;;;;;;;;;;;;0.29;94.21;102971.75;2055246;28;45741;-63
2022/02/26 00:52:31;;;;;;;;;;;;;;;0.27;94.57;102976.03;2055201;28;40138;-63
2022/02/26 00:53:32;;;;;;;;;;;;;;;0.38;95.13;102985.38;2054938;28;45017;-63
2022/02/26 00:54:37;;;;;;;;;;;;;;;0.34;94.48;102983.44;2056495;28;20063;-62
2022/02/26 00:55:39;;;;;;;;;;;;;;;0.25;94.49;102987.28;2055223;28;45682;-63
2022/02/26 00:56:42;;;;;;;;;;;;;;;0.28;94.82;102992.72;2055446;28;45635;-62
2022/02/26 00:57:43;;;;;;;;;;;;;;;0.27;94.46;102989.22;2056177;28;20053;-62
2022/02/26 00:58:45;;;;;;;;;;;;;;;0.32;94.58;102990.34;2055189;28;46158;-62
2022/02/26 00:59:47;;;;;;;;;;;;;;;0.34;94.47;103001.88;2055020;28;44135;-62
2022/02/26 01:00:48;;;;;;;;;;;;;;;0.31;94.42;102998.19;2055281;28;44567;-62
2022/02/26 01:01:50;;;;;;;;;;;;;;;0.35;94.48;102995.75;2054860;28;46305;-62
2022/02/26 01:02:52;;;;;;;;;;;;;;;0.29;94.80;102999.84;2055160;28;45946;-62
2022/02/26 01:03:56;;;;;;;;;;;;;;;0.28;94.72;103005.91;2056315;28;19973;-62
2022/02/26 01:04:57;;;;;;;;;;;;;;;0.29;94.53;103006.00;2056232;28;20013;-63
2022/02/26 01:05:59;;;;;;;;;;;;;;;0.24;95.13;103010.09;2056805;28;20704;-62
2022/02/26 01:07:01;;;;;;;;;;;;;;;0.19;94.64;103008.97;2055386;28;44791;-63
2022/02/26 01:08:03;;;;;;;;;;;;;;;0.20;94.90;103013.41;2055210;28;45422;-62
2022/02/26 01:09:06;;;;;;;;;;;;;;;0.16;94.87;103009.72;2055266;28;45317;-61
2022/02/26 01:10:08;;;;;;;;;;;;;;;0.24;94.99;103015.38;2055754;28;41823;-62
2022/02/26 01:11:10;;;;;;;;;;;;;;;0.21;94.91;103012.56;2055031;28;42980;-62
2022/02/26 01:12:12;;;;;;;;;;;;;;;0.16;94.87;103011.41;2054759;28;46419;-62
2022/02/26 01:13:13;;;;;;;;;;;;;;;0.19;95.09;103011.59;2055184;28;41816;-62
2022/02/26 01:14:15;;;;;;;;;;;;;;;0.20;95.32;103016.06;2054932;28;46059;-62
2022/02/26 01:15:16;;;;;;;;;;;;;;;0.16;95.24;103014.97;2054469;28;45198;-62
2022/02/26 01:16:18;;;;;;;;;;;;;;;0.26;95.21;103015.47;2055064;28;45477;-62
2022/02/26 01:17:20;;;;;;;;;;;;;;;0.15;95.22;103012.25;2054766;28;44649;-61
2022/02/26 01:18:21;;;;;;;;;;;;;;;0.14;95.25;103015.72;2055099;28;43354;-63
2022/02/26 01:19:24;;;;;;;;;;;;;;;0.09;94.41;103018.13;2055931;28;19988;-62
2022/02/26 01:20:25;;;;;;;;;;;;;;;0.06;95.13;103019.69;2054696;28;45974;-62
2022/02/26 01:21:27;;;;;;;;;;;;;;;0.06;95.18;103022.31;2055207;28;44308;-62
2022/02/26 01:22:31;;;;;;;;;;;;;;;0.03;95.26;103030.03;2054632;28;44005;-63
2022/02/26 01:23:33;;;;;;;;;;;;;;;0.02;95.28;103025.56;2055002;28;43060;-62
2022/02/26 01:24:35;;;;;;;;;;;;;;;-0.04;94.77;103027.06;2054649;28;45690;-62
2022/02/26 01:25:37;;;;;;;;;;;;;;;-0.10;95.24;103032.00;2055655;28;37711;-62
2022/02/26 01:26:39;;;;;;;;;;;;;;;-0.13;95.20;103031.81;2055465;28;44259;-63
2022/02/26 01:27:40;;;;;;;;;;;;;;;-0.12;95.18;103031.00;2055056;28;35845;-62
2022/02/26 01:28:42;;;;;;;;;;;;;;;-0.17;94.75;103042.13;2055361;28;43986;-63
2022/02/26 01:29:44;;;;;;;;;;;;;;;-0.13;95.49;103042.34;2055236;28;45333;-63
2022/02/26 01:30:45;;;;;;;;;;;;;;;-0.14;95.67;103040.56;2054590;28;46009;-62
2022/02/26 01:31:49;;;;;;;;;;;;;;;-0.17;95.77;103040.38;2056376;28;19937;-63
2022/02/26 01:32:51;;;;;;;;;;;;;;;-0.09;95.91;103051.31;2054944;28;45790;-62
2022/02/26 01:33:53;;;;;;;;;;;;;;;-0.12;95.55;103048.53;2055375;28;44418;-62
2022/02/26 01:34:54;;;;;;;;;;;;;;;-0.12;96.06;103049.44;2055291;28;43586;-62
2022/02/26 01:35:56;;;;;;;;;;;;;;;-0.14;95.99;103052.78;2055918;28;46185;-62
2022/02/26 01:37:00;;;;;;;;;;;;;;;-0.11;96.15;103053.88;2056715;28;44547;-63
2022/02/26 01:38:01;;;;;;;;;;;;;;;-0.06;96.14;103048.88;2056069;28;43865;-63
2022/02/26 01:39:10;;;;;;;;;;;;;;;-0.08;96.08;103056.69;2056937;28;39017;-63
2022/02/26 01:40:12;;;;;;;;;;;;;;;-0.04;96.52;103052.47;2056525;28;45572;-63
2022/02/26 01:41:13;;;;;;;;;;;;;;;-0.06;96.78;103051.50;2056381;28;45046;-63
2022/02/26 01:42:17;;;;;;;;;;;;;;;-0.07;96.18;103055.88;2055926;28;44485;-63
2022/02/26 01:43:21;;;;;;;;;;;;;;;-0.04;96.33;103053.38;2056412;28;44150;-63
2022/02/26 01:44:23;;;;;;;;;;;;;;;-0.05;96.56;103048.97;2056716;28;38799;-63
2022/02/26 01:45:26;;;;;;;;;;;;;;;-0.02;96.39;103049.13;2056726;28;44431;-63
2022/02/26 01:46:28;;;;;;;;;;;;;;;-0.01;96.36;103052.66;2056377;28;45272;-63
2022/02/26 01:47:30;;;;;;;;;;;;;;;-0.05;96.08;103056.84;2057098;28;20957;-63
2022/02/26 01:48:32;;;;;;;;;;;;;;;0.02;96.05;103059.81;2056209;28;44087;-63
2022/02/26 01:49:34;;;;;;;;;;;;;;;-0.01;96.28;103050.94;2056475;28;43913;-63
2022/02/26 01:50:36;;;;;;;;;;;;;;;-0.03;96.21;103051.69;2055649;28;45267;-63
2022/02/26 01:51:39;;;;;;;;;;;;;;;-0.06;96.42;103055.03;2056417;28;46732;-64
2022/02/26 01:52:41;;;;;;;;;;;;;;;0.01;96.22;103053.66;2056873;28;20076;-63
2022/02/26 01:53:43;;;;;;;;;;;;;;;-0.05;96.32;103062.13;2056453;28;44390;-63
2022/02/26 01:54:46;;;;;;;;;;;;;;;-0.05;96.34;103059.50;2056103;28;46109;-63
2022/02/26 01:55:50;;;;;;;;;;;;;;;-0.06;96.07;103070.81;2057113;28;19930;-63
2022/02/26 01:56:52;;;;;;;;;;;;;;;-0.07;96.15;103069.03;2056120;28;45566;-63
2022/02/26 01:57:53;;;;;;;;;;;;;;;-0.14;96.04;103072.16;2056385;28;45778;-63
2022/02/26 01:58:55;;;;;;;;;;;;;;;-0.14;95.88;103074.78;2054913;28;44087;-63
2022/02/26 01:59:56;;;;;;;;;;;;;;;-0.15;96.06;103078.22;2054221;28;19930;-63
2022/02/26 02:00:58;;;;;;;;;;;;;;;-0.12;95.86;103080.13;2056730;28;32136;-63
2022/02/26 02:02:01;;;;;;;;;;;;;;;-0.09;96.35;103078.59;2055893;28;45546;-63
2022/02/26 02:03:08;;;;;;;;;;;;;;;-0.01;96.46;103074.63;2056331;28;44697;-65
2022/02/26 02:04:09;;;;;;;;;;;;;;;-0.05;96.42;103069.13;2056323;28;44221;-63
2022/02/26 02:05:12;;;;;;;;;;;;;;;-0.07;96.58;103076.00;2057213;28;20061;-63
2022/02/26 02:06:14;;;;;;;;;;;;;;;-0.08;96.37;103072.47;2055864;28;42723;-63
2022/02/26 02:07:16;;;;;;;;;;;;;;;-0.06;96.12;103065.56;2056122;28;45444;-63
2022/02/26 02:08:18;;;;;;;;;;;;;;;-0.04;96.25;103074.44;2057450;28;20150;-63
2022/02/26 02:09:19;;;;;;;;;;;;;;;-0.04;96.16;103068.28;2056060;28;38576;-63
2022/02/26 02:10:22;;;;;;;;;;;;;;;-0.09;96.19;103073.31;2055597;28;46163;-63
2022/02/26 02:11:28;;;;;;;;;;;;;;;-0.04;96.28;103069.19;2057140;28;20008;-63
2022/02/26 02:12:31;;;;;;;;;;;;;;;0.02;96.48;103063.38;2056331;28;41573;-63
2022/02/26 02:13:34;;;;;;;;;;;;;;;-0.06;96.37;103070.81;2056168;28;45786;-63
2022/02/26 02:14:36;;;;;;;;;;;;;;;-0.06;96.53;103075.19;2055544;28;45402;-63
2022/02/26 02:15:40;;;;;;;;;;;;;;;-0.07;96.17;103069.03;2056352;28;46608;-63
2022/02/26 02:16:42;;;;;;;;;;;;;;;-0.10;96.11;103067.97;2056478;28;41837;-63
2022/02/26 02:17:46;;;;;;;;;;;;;;;-0.09;96.23;103072.38;2056130;28;40053;-62
2022/02/26 02:18:47;;;;;;;;;;;;;;;-0.15;95.59;103075.59;2056266;28;44935;-63
2022/02/26 02:19:50;;;;;;;;;;;;;;;-0.15;96.07;103069.44;2057427;28;19926;-63
2022/02/26 02:20:52;;;;;;;;;;;;;;;-0.18;96.39;103080.69;2056305;28;44036;-64
2022/02/26 02:21:54;;;;;;;;;;;;;;;-0.24;95.99;103081.25;2056123;28;44401;-63
2022/02/26 02:22:56;;;;;;;;;;;;;;;-0.27;95.83;103085.44;2055895;28;45114;-64
2022/02/26 02:23:57;;;;;;;;;;;;;;;-0.26;96.17;103082.00;2056149;28;47203;-63
2022/02/26 02:24:59;;;;;;;;;;;;;;;-0.29;96.12;103079.19;2056414;28;44622;-63
2022/02/26 02:26:01;;;;;;;;;;;;;;;-0.27;96.55;103080.16;2056234;28;45907;-63
2022/02/26 02:27:06;;;;;;;;;;;;;;;-0.26;96.39;103080.25;2056135;28;45644;-63
2022/02/26 02:28:09;;;;;;;;;;;;;;;-0.29;96.37;103087.97;2056238;28;45285;-63
2022/02/26 02:29:12;;;;;;;;;;;;;;;-0.31;96.54;103075.56;2056889;28;20903;-64
2022/02/26 02:30:13;;;;;;;;;;;;;;;-0.28;96.55;103088.91;2056068;28;43049;-64
2022/02/26 02:31:17;;;;;;;;;;;;;;;-0.32;96.48;103087.81;2056381;28;44167;-64
2022/02/26 02:32:21;;;;;;;;;;;;;;;-0.31;96.79;103083.47;2056423;28;38977;-64
2022/02/26 02:33:23;;;;;;;;;;;;;;;-0.32;97.05;103081.63;2057107;28;19930;-64
2022/02/26 02:34:25;;;;;;;;;;;;;;;-0.29;96.84;103087.06;2056393;28;45471;-63
2022/02/26 02:35:28;;;;;;;;;;;;;;;-0.33;96.55;103091.25;2056236;28;44287;-64
2022/02/26 02:36:30;;;;;;;;;;;;;;;-0.31;96.55;103089.63;2056202;28;37679;-63
2022/02/26 02:37:31;;;;;;;;;;;;;;;-0.36;96.43;103092.81;2055857;28;43436;-63
2022/02/26 02:38:33;;;;;;;;;;;;;;;-0.41;96.03;103097.84;2057181;28;20020;-63
2022/02/26 02:39:35;;;;;;;;;;;;;;;-0.42;96.44;103096.91;2056794;28;19923;-63
2022/02/26 02:40:40;;;;;;;;;;;;;;;-0.38;96.63;103098.00;2055286;28;44525;-63
2022/02/26 02:41:42;;;;;;;;;;;;;;;-0.42;96.41;103102.16;2055728;28;45225;-63
2022/02/26 02:42:44;;;;;;;;;;;;;;;-0.39;96.69;103102.34;2056434;28;45258;-63
2022/02/26 02:43:46;;;;;;;;;;;;;;;-0.37;96.87;103099.81;2055943;28;42371;-63
2022/02/26 02:44:47;;;;;;;;;;;;;;;-0.36;96.64;103098.97;2055537;28;46039;-64
2022/02/26 02:45:50;;;;;;;;;;;;;;;-0.37;96.89;103104.19;2057261;28;19930;-64
2022/02/26 02:46:54;;;;;;;;;;;;;;;-0.36;96.98;103100.72;2055532;28;44274;-63
2022/02/26 02:47:56;;;;;;;;;;;;;;;-0.37;96.88;103101.53;2055792;28;45594;-63
2022/02/26 02:48:57;;;;;;;;;;;;;;;-0.46;96.51;103110.72;2056177;28;44391;-63
2022/02/26 02:49:59;;;;;;;;;;;;;;;-0.43;96.38;103118.78;2056274;28;45543;-63
2022/02/26 02:51:05;;;;;;;;;;;;;;;-0.41;96.46;103119.78;2055359;28;44898;-63
2022/02/26 02:52:07;;;;;;;;;;;;;;;-0.43;96.62;103113.53;2055800;28;44253;-63
2022/02/26 02:53:09;;;;;;;;;;;;;;;-0.41;96.88;103111.00;2057084;28;20807;-63
2022/02/26 02:54:11;;;;;;;;;;;;;;;-0.44;97.46;103108.19;2056060;28;43028;-63
2022/02/26 02:55:14;;;;;;;;;;;;;;;-0.44;96.86;103119.59;2056322;28;40518;-63
2022/02/26 02:56:16;;;;;;;;;;;;;;;-0.43;96.61;103113.53;2056519;28;20005;-63
2022/02/26 02:57:18;;;;;;;;;;;;;;;-0.46;96.74;103120.34;2055978;28;44235;-63
2022/02/26 02:58:25;;;;;;;;;;;;;;;-0.51;96.37;103119.16;2055592;28;44918;-63
2022/02/26 02:59:26;;;;;;;;;;;;;;;-0.54;96.88;103122.50;2055422;28;43044;-63
2022/02/26 03:00:29;;;;;;;;;;;;;;;-0.49;96.48;103123.69;2056507;28;43433;-63
2022/02/26 03:01:30;;;;;;;;;;;;;;;-0.52;96.69;103122.59;2055558;28;42263;-63
2022/02/26 03:02:33;;;;;;;;;;;;;;;-0.55;97.07;103122.44;2056154;28;44113;-63
2022/02/26 03:03:35;;;;;;;;;;;;;;;-0.56;97.15;103123.25;2055630;28;45611;-63
2022/02/26 03:04:36;;;;;;;;;;;;;;;-0.57;96.71;103122.34;2055215;28;44077;-63
2022/02/26 03:05:38;;;;;;;;;;;;;;;-0.51;97.01;103127.06;2055356;28;45783;-63
2022/02/26 03:06:39;;;;;;;;;;;;;;;-0.54;97.16;103118.97;2055694;28;46204;-62
2022/02/26 03:07:42;;;;;;;;;;;;;;;-0.55;97.09;103118.09;2055816;28;41432;-62
2022/02/26 03:08:45;;;;;;;;;;;;;;;-0.53;97.34;103119.06;2056077;28;45811;-62
2022/02/26 03:09:47;;;;;;;;;;;;;;;-0.50;97.27;103114.00;2055821;28;45692;-62
2022/02/26 03:10:50;;;;;;;;;;;;;;;-0.51;97.21;103122.69;2056384;28;33304;-62
2022/02/26 03:11:52;;;;;;;;;;;;;;;-0.53;97.29;103119.06;2055477;28;46264;-62
2022/02/26 03:12:53;;;;;;;;;;;;;;;-0.56;97.14;103112.72;2055962;28;42827;-62
2022/02/26 03:13:55;;;;;;;;;;;;;;;-0.60;96.64;103119.53;2055990;28;40268;-62
2022/02/26 03:14:57;;;;;;;;;;;;;;;-0.64;97.08;103114.94;2055544;28;44778;-62
2022/02/26 03:15:58;;;;;;;;;;;;;;;-0.67;96.43;103120.00;2056024;28;45202;-61
2022/02/26 03:17:00;;;;;;;;;;;;;;;-0.69;96.92;103116.38;2055865;28;45277;-62
2022/02/26 03:18:04;;;;;;;;;;;;;;;-0.72;97.04;103121.44;2055923;28;44427;-62
2022/02/26 03:19:06;;;;;;;;;;;;;;;-0.75;96.68;103114.31;2056043;28;44317;-62
2022/02/26 03:20:10;;;;;;;;;;;;;;;-0.75;96.94;103114.31;2055780;28;45886;-62
2022/02/26 03:21:12;;;;;;;;;;;;;;;-0.79;97.00;103114.91;2055657;28;45617;-62
2022/02/26 03:22:13;;;;;;;;;;;;;;;-0.83;96.69;103113.81;2055745;28;42708;-62
2022/02/26 03:23:16;;;;;;;;;;;;;;;-0.81;96.92;103117.47;2056361;28;41710;-62
2022/02/26 03:24:17;;;;;;;;;;;;;;;-0.85;96.59;103115.47;2055620;28;45376;-61
2022/02/26 03:25:23;;;;;;;;;;;;;;;-0.89;96.26;103115.22;2055750;28;46176;-62
2022/02/26 03:26:25;;;;;;;;;;;;;;;-0.91;97.03;103135.25;2056602;28;20038;-62
2022/02/26 03:27:27;;;;;;;;;;;;;;;-0.97;96.41;103120.94;2056769;28;19936;-62
2022/02/26 03:28:28;;;;;;;;;;;;;;;-0.97;96.80;103128.81;2055802;28;44680;-62
2022/02/26 03:29:32;;;;;;;;;;;;;;;-1.00;96.92;103125.09;2056432;28;19935;-62
2022/02/26 03:30:34;;;;;;;;;;;;;;;-0.99;96.36;103121.63;2056633;28;19927;-62
2022/02/26 03:31:38;;;;;;;;;;;;;;;-1.02;97.13;103127.63;2055515;28;44166;-63
2022/02/26 03:32:40;;;;;;;;;;;;;;;-1.02;97.44;103132.88;2055385;28;44065;-62
2022/02/26 03:33:41;;;;;;;;;;;;;;;-1.01;97.13;103139.03;2055755;28;44776;-62
2022/02/26 03:34:43;;;;;;;;;;;;;;;-1.04;96.81;103139.78;2055611;28;40806;-63
2022/02/26 03:35:45;;;;;;;;;;;;;;;-1.05;97.11;103143.22;2055593;28;44971;-61
2022/02/26 03:36:53;;;;;;;;;;;;;;;-1.04;96.78;103139.78;2055340;28;43214;-61
2022/02/26 03:37:55;;;;;;;;;;;;;;;-1.01;97.44;103141.66;2055701;28;45677;-61
2022/02/26 03:38:56;;;;;;;;;;;;;;;-1.01;97.19;103142.56;2055451;28;44519;-61
2022/02/26 03:39:58;;;;;;;;;;;;;;;-0.92;97.49;103144.84;2055697;28;45188;-61
2022/02/26 03:41:00;;;;;;;;;;;;;;;-0.88;97.55;103141.59;2055451;28;46430;-62
2022/02/26 03:42:04;;;;;;;;;;;;;;;-0.96;97.75;103141.13;2055496;28;43039;-62
2022/02/26 03:43:05;;;;;;;;;;;;;;;-0.93;97.39;103142.13;2055186;28;45482;-62
2022/02/26 03:44:08;;;;;;;;;;;;;;;-0.93;97.10;103145.69;2055632;28;44414;-62
2022/02/26 03:45:11;;;;;;;;;;;;;;;-0.93;97.85;103144.75;2055545;28;40351;-61
2022/02/26 03:46:13;;;;;;;;;;;;;;;-0.92;97.43;103143.94;2055846;28;46009;-62
2022/02/26 03:47:16;;;;;;;;;;;;;;;-0.95;97.87;103149.94;2056401;28;19988;-61
2022/02/26 03:48:17;;;;;;;;;;;;;;;-0.96;97.28;103142.84;2055451;28;45432;-61
2022/02/26 03:49:19;;;;;;;;;;;;;;;-0.94;97.06;103146.47;2055688;28;44720;-61
2022/02/26 03:50:21;;;;;;;;;;;;;;;-0.99;97.25;103145.28;2055772;28;44070;-61
2022/02/26 03:51:22;;;;;;;;;;;;;;;-0.93;97.28;103148.31;2056198;28;19927;-61
2022/02/26 03:52:24;;;;;;;;;;;;;;;-0.97;97.39;103156.81;2055355;28;44772;-60
2022/02/26 03:53:25;;;;;;;;;;;;;;;-0.96;97.27;103154.28;2055282;28;43268;-62
2022/02/26 03:54:27;;;;;;;;;;;;;;;-0.98;97.07;103155.91;2055597;28;46097;-61
2022/02/26 03:55:29;;;;;;;;;;;;;;;-1.00;97.53;103151.38;2055322;28;42878;-61
2022/02/26 03:56:31;;;;;;;;;;;;;;;-1.02;97.13;103147.75;2055581;28;44582;-61
2022/02/26 03:57:33;;;;;;;;;;;;;;;-1.04;97.55;103141.47;2055567;28;45333;-62
2022/02/26 03:58:37;;;;;;;;;;;;;;;-1.07;97.12;103154.47;2055229;28;45723;-61
2022/02/26 03:59:38;;;;;;;;;;;;;;;-1.10;97.09;103149.91;2056308;28;20197;-61
2022/02/26 04:00:40;;;;;;;;;;;;;;;-1.05;96.86;103155.44;2055781;28;44659;-63
2022/02/26 04:01:42;;;;;;;;;;;;;;;-1.09;97.75;103153.47;2055272;28;45223;-63
2022/02/26 04:02:44;;;;;;;;;;;;;;;-1.12;97.18;103161.16;2056068;28;44861;-63
2022/02/26 04:03:48;;;;;;;;;;;;;;;-1.14;97.60;103162.78;2056522;28;20776;-61
2022/02/26 04:04:50;;;;;;;;;;;;;;;-1.08;97.28;103163.16;2055649;28;46591;-63
2022/02/26 04:05:51;;;;;;;;;;;;;;;-1.09;97.44;103161.34;2056475;28;19926;-62
2022/02/26 04:06:54;;;;;;;;;;;;;;;-1.11;97.37;103155.06;2055557;28;42969;-63
2022/02/26 04:07:56;;;;;;;;;;;;;;;-1.12;97.05;103151.53;2056327;28;19981;-63
2022/02/26 04:09:00;;;;;;;;;;;;;;;-1.14;97.30;103157.53;2056510;28;20831;-63
2022/02/26 04:10:05;;;;;;;;;;;;;;;-1.14;97.16;103157.53;2055243;28;45560;-62
2022/02/26 04:11:07;;;;;;;;;;;;;;;-1.18;97.66;103164.31;2055586;28;45898;-63
2022/02/26 04:12:09;;;;;;;;;;;;;;;-1.21;97.10;103170.28;2055708;28;45958;-63
2022/02/26 04:13:10;;;;;;;;;;;;;;;-1.18;97.36;103173.09;2055682;28;46814;-63
2022/02/26 04:14:12;;;;;;;;;;;;;;;-1.21;97.13;103166.75;2055989;28;33927;-63
2022/02/26 04:15:14;;;;;;;;;;;;;;;-1.23;96.91;103171.00;2055543;28;45416;-63
2022/02/26 04:16:17;;;;;;;;;;;;;;;-1.27;96.99;103167.28;2055455;28;46056;-62
2022/02/26 04:17:20;;;;;;;;;;;;;;;-1.30;96.64;103172.34;2055413;28;45285;-62
2022/02/26 04:18:23;;;;;;;;;;;;;;;-1.32;97.00;103167.81;2056283;28;19929;-62
2022/02/26 04:19:24;;;;;;;;;;;;;;;-1.36;97.04;103161.47;2055729;28;41839;-62
2022/02/26 04:20:26;;;;;;;;;;;;;;;-1.39;96.87;103171.78;2055156;28;45409;-62
2022/02/26 04:21:28;;;;;;;;;;;;;;;-1.38;97.37;103169.25;2055633;28;41314;-62
2022/02/26 04:22:30;;;;;;;;;;;;;;;-1.41;97.18;103181.28;2055110;28;44405;-62
2022/02/26 04:23:32;;;;;;;;;;;;;;;-1.45;97.07;103171.41;2056661;28;19970;-63
2022/02/26 04:24:33;;;;;;;;;;;;;;;-1.49;97.03;103174.63;2055558;28;44270;-61
2022/02/26 04:25:36;;;;;;;;;;;;;;;-1.49;97.15;103179.88;2056679;28;19937;-62
2022/02/26 04:26:38;;;;;;;;;;;;;;;-1.50;96.47;103179.00;2056057;28;20732;-62
2022/02/26 04:27:40;;;;;;;;;;;;;;;-1.48;96.98;103184.34;2055748;28;44210;-62
2022/02/26 04:28:41;;;;;;;;;;;;;;;-1.50;97.17;103175.47;2054840;28;45041;-62
2022/02/26 04:29:43;;;;;;;;;;;;;;;-1.54;97.71;103183.16;2056085;28;43989;-62
2022/02/26 04:31:05;;;;;;;;;;;;;;;-1.57;97.50;103182.94;2056619;28;19974;-62
2022/02/26 04:32:07;;;;;;;;;;;;;;;-1.59;96.54;103189.81;2055698;28;31777;-63
2022/02/26 04:33:09;;;;;;;;;;;;;;;-1.58;96.92;103190.72;2055185;28;44200;-62
2022/02/26 04:34:10;;;;;;;;;;;;;;;-1.60;97.29;103190.66;2055279;28;44642;-62
2022/02/26 04:35:12;;;;;;;;;;;;;;;-1.59;96.87;103187.19;2054696;28;47226;-61
2022/02/26 04:36:14;;;;;;;;;;;;;;;-1.59;97.42;103188.94;2055817;28;19926;-62
2022/02/26 04:37:20;;;;;;;;;;;;;;;-1.51;97.62;103192.03;2054966;28;44910;-62
2022/02/26 04:38:22;;;;;;;;;;;;;;;-1.42;97.83;103197.84;2055225;28;43150;-63
2022/02/26 04:39:23;;;;;;;;;;;;;;;-1.51;97.54;103197.28;2056493;28;20004;-63
2022/02/26 04:40:27;;;;;;;;;;;;;;;-1.42;97.59;103205.75;2056162;28;20064;-63
2022/02/26 04:41:29;;;;;;;;;;;;;;;-1.47;97.54;103202.84;2055454;28;45150;-61
2022/02/26 04:42:30;;;;;;;;;;;;;;;-1.51;97.92;103198.19;2055423;28;44067;-61
2022/02/26 04:43:34;;;;;;;;;;;;;;;-1.54;97.43;103209.41;2055565;28;32968;-61
2022/02/26 04:44:36;;;;;;;;;;;;;;;-1.44;98.16;103204.75;2055375;28;38331;-61
2022/02/26 04:45:38;;;;;;;;;;;;;;;-1.49;97.85;103201.84;2055325;28;44688;-61
2022/02/26 04:46:39;;;;;;;;;;;;;;;-1.48;97.35;103203.63;2054595;28;44649;-61
2022/02/26 04:47:42;;;;;;;;;;;;;;;-1.44;97.83;103202.13;2055347;28;41779;-60
2022/02/26 04:48:44;;;;;;;;;;;;;;;-1.36;98.25;103208.78;2055393;28;43065;-63
2022/02/26 04:49:47;;;;;;;;;;;;;;;-1.38;98.07;103199.88;2055101;28;45666;-61
2022/02/26 04:50:49;;;;;;;;;;;;;;;-1.31;98.38;103206.41;2055477;28;45936;-61
2022/02/26 04:51:51;;;;;;;;;;;;;;;-1.30;98.03;103203.88;2055700;28;45217;-63
2022/02/26 04:52:55;;;;;;;;;;;;;;;-1.29;98.93;103210.97;2056451;28;20786;-61
2022/02/26 04:53:57;;;;;;;;;;;;;;;-1.37;98.40;103214.81;2055076;28;46103;-61
2022/02/26 04:54:58;;;;;;;;;;;;;;;-1.37;98.15;103212.19;2055359;28;42785;-61
2022/02/26 04:56:00;;;;;;;;;;;;;;;-1.41;98.16;103210.19;2055266;28;46562;-61
2022/02/26 04:57:02;;;;;;;;;;;;;;;-1.46;97.70;103217.78;2055392;28;44206;-61
2022/02/26 04:58:09;;;;;;;;;;;;;;;-1.49;97.82;103220.22;2056220;28;19927;-61
2022/02/26 04:59:10;;;;;;;;;;;;;;;-1.51;97.96;103226.19;2055301;28;46083;-60
2022/02/26 05:00:12;;;;;;;;;;;;;;;-1.57;97.74;103219.72;2054869;28;45610;-61
2022/02/26 05:01:14;;;;;;;;;;;;;;;-1.57;97.54;103229.31;2055257;28;46121;-61
2022/02/26 05:02:15;;;;;;;;;;;;;;;-1.62;97.44;103221.13;2055020;28;42957;-61
2022/02/26 05:03:18;;;;;;;;;;;;;;;-1.63;97.22;103224.59;2056287;28;19926;-61
2022/02/26 05:04:23;;;;;;;;;;;;;;;-1.67;97.31;103233.09;2054649;28;44780;-61
2022/02/26 05:05:24;;;;;;;;;;;;;;;-1.66;97.51;103229.66;2054865;28;43502;-61
2022/02/26 05:06:26;;;;;;;;;;;;;;;-1.63;98.08;103234.22;2055439;28;46291;-61
2022/02/26 05:07:28;;;;;;;;;;;;;;;-1.64;97.31;103230.66;2054492;28;44006;-61
2022/02/26 05:08:32;;;;;;;;;;;;;;;-1.67;97.27;103232.16;2055236;28;44033;-61
2022/02/26 05:09:35;;;;;;;;;;;;;;;-1.71;97.58;103241.56;2062904;28;39266;-62
2022/02/26 05:10:37;;;;;;;;;;;;;;;-1.71;97.41;103245.91;2061684;28;45084;-61
2022/02/26 05:11:39;;;;;;;;;;;;;;;-1.74;97.20;103246.66;2055375;28;46020;-61
2022/02/26 05:12:42;;;;;;;;;;;;;;;-1.77;97.53;103247.34;2055202;28;33935;-61
2022/02/26 05:13:44;;;;;;;;;;;;;;;-1.80;97.18;103246.22;2055615;28;45372;-61
2022/02/26 05:14:45;;;;;;;;;;;;;;;-1.77;97.55;103241.19;2054898;28;40583;-61
2022/02/26 05:15:47;;;;;;;;;;;;;;;-1.77;97.79;103246.44;2055100;28;44826;-61
2022/02/26 05:16:49;;;;;;;;;;;;;;;-1.81;97.70;103249.66;2054941;28;44573;-61
2022/02/26 05:17:50;;;;;;;;;;;;;;;-1.81;97.75;103244.41;2055384;28;44402;-61
2022/02/26 05:18:52;;;;;;;;;;;;;;;-1.83;97.70;103256.53;2054944;28;45369;-61
2022/02/26 05:19:53;;;;;;;;;;;;;;;-1.82;97.89;103254.00;2055237;28;46898;-61
2022/02/26 05:20:55;;;;;;;;;;;;;;;-1.82;97.86;103255.72;2054921;28;43058;-61
2022/02/26 05:21:56;;;;;;;;;;;;;;;-1.85;97.58;103255.53;2054998;28;44383;-61
2022/02/26 05:22:58;;;;;;;;;;;;;;;-1.77;98.00;103246.44;2055037;28;44956;-60